createdAt,value
2022-10-01T00:02:00.216Z,6.10
2022-10-01T00:04:28.503Z,4.40
2022-10-01T00:06:59.195Z,5.50
2022-10-01T00:09:27.133Z,5.20
2022-10-01T00:11:56.601Z,5.60
2022-10-01T00:14:24.346Z,6.03
2022-10-01T00:16:52.185Z,6.30
2022-10-01T00:19:20.998Z,4.83
2022-10-01T00:21:48.809Z,5.33
2022-10-01T00:24:16.795Z,5.97
2022-10-01T00:26:45.518Z,5.43
2022-10-01T00:29:15.735Z,6.07
2022-10-01T00:31:44.071Z,6.53
2022-10-01T00:34:14.961Z,5.03
2022-10-01T00:36:42.851Z,6.60
2022-10-01T00:39:12.289Z,5.80
2022-10-01T00:41:40.931Z,5.23
2022-10-01T00:44:33.099Z,6.13
2022-10-01T00:47:24.609Z,7.67
2022-10-01T00:50:05.828Z,5.60
2022-10-01T00:52:39.798Z,6.60
2022-10-01T00:55:15.793Z,6.80
2022-10-01T00:57:45.534Z,10.67
2022-10-01T01:00:18.806Z,9.67
2022-10-01T01:02:46.835Z,9.13
2022-10-01T01:05:14.814Z,9.37
2022-10-01T01:07:46.990Z,10.87
2022-10-01T01:10:20.981Z,12.20
2022-10-01T01:13:12.844Z,11.80
2022-10-01T01:15:54.016Z,13.37
2022-10-01T01:18:32.349Z,15.40
2022-10-01T01:21:16.592Z,14.07
2022-10-01T01:24:20.708Z,18.67
2022-10-01T01:27:07.733Z,14.93
2022-10-01T01:29:43.871Z,14.07
2022-10-01T01:32:19.410Z,21.53
2022-10-01T01:34:52.420Z,23.40
2022-10-01T01:37:28.719Z,19.00
2022-10-01T01:40:00.998Z,23.23
2022-10-01T01:42:37.135Z,24.13
2022-10-01T01:45:13.585Z,27.20
2022-10-01T01:47:44.196Z,33.87
2022-10-01T01:50:15.682Z,26.13
2022-10-01T01:52:43.648Z,26.63
2022-10-01T01:55:11.674Z,29.23
2022-10-01T01:57:43.593Z,35.30
2022-10-01T02:00:14.267Z,37.23
2022-10-01T02:02:50.115Z,35.83
2022-10-01T02:05:23.319Z,31.87
2022-10-01T02:08:21.831Z,34.10
2022-10-01T02:11:09.318Z,35.10
2022-10-01T02:13:53.460Z,36.20
2022-10-01T02:16:33.824Z,33.67
2022-10-01T02:19:13.370Z,31.57
2022-10-01T02:21:55.198Z,27.23
2022-10-01T02:24:36.270Z,28.47
2022-10-01T02:27:15.596Z,33.20
2022-10-01T02:29:45.624Z,36.17
2022-10-01T02:32:18.438Z,33.17
2022-10-01T02:34:49.908Z,41.00
2022-10-01T02:37:23.187Z,37.47
2022-10-01T02:39:54.515Z,34.50
2022-10-01T02:42:27.430Z,37.33
2022-10-01T02:45:02.307Z,43.10
2022-10-01T02:47:39.485Z,35.90
2022-10-01T02:50:09.559Z,41.53
2022-10-01T02:52:45.789Z,30.77
2022-10-01T02:55:19.318Z,29.07
2022-10-01T02:57:47.492Z,31.83
2022-10-01T03:00:21.240Z,30.87
2022-10-01T03:02:50.960Z,36.20
2022-10-01T03:05:20.492Z,27.73
2022-10-01T03:07:48.980Z,35.87
2022-10-01T03:10:17.538Z,25.43
2022-10-01T03:12:46.404Z,36.27
2022-10-01T03:15:17.064Z,38.70
2022-10-01T03:17:45.102Z,31.67
2022-10-01T03:20:14.244Z,35.03
2022-10-01T03:22:46.348Z,32.83
2022-10-01T03:25:14.367Z,28.57
2022-10-01T03:27:42.623Z,34.50
2022-10-01T03:30:12.513Z,31.43
2022-10-01T03:32:40.425Z,29.27
2022-10-01T03:35:09.597Z,25.93
2022-10-01T03:37:39.599Z,17.70
2022-10-01T03:40:09.347Z,25.73
2022-10-01T03:42:37.159Z,31.47
2022-10-01T03:45:06.003Z,27.77
2022-10-01T03:47:34.095Z,25.07
2022-10-01T03:50:01.937Z,23.63
2022-10-01T03:52:30.064Z,24.40
2022-10-01T03:55:00.608Z,21.53
2022-10-01T03:57:28.334Z,19.07
2022-10-01T03:59:56.070Z,23.33
2022-10-01T04:02:24.067Z,19.60
2022-10-01T04:04:51.955Z,18.73
2022-10-01T04:07:19.717Z,20.00
2022-10-01T04:09:47.647Z,24.33
2022-10-01T04:12:16.789Z,18.17
2022-10-01T04:14:44.498Z,19.87
2022-10-01T04:17:12.241Z,14.60
2022-10-01T04:19:40.005Z,22.37
2022-10-01T04:22:07.833Z,21.60
2022-10-01T04:24:35.607Z,19.27
2022-10-01T04:27:03.610Z,16.57
2022-10-01T04:29:35.721Z,17.30
2022-10-01T04:32:07.483Z,19.27
2022-10-01T04:34:54.143Z,16.80
2022-10-01T04:37:23.354Z,13.33
2022-10-01T04:39:51.221Z,15.00
2022-10-01T04:42:19.191Z,14.07
2022-10-01T04:44:48.829Z,17.67
2022-10-01T04:47:16.582Z,15.57
2022-10-01T04:49:44.369Z,13.83
2022-10-01T04:52:12.139Z,17.73
2022-10-01T04:54:39.859Z,16.53
2022-10-01T04:57:07.942Z,11.80
2022-10-01T04:59:35.747Z,13.60
2022-10-01T05:02:04.891Z,11.63
2022-10-01T05:04:32.672Z,14.20
2022-10-01T05:07:00.390Z,9.70
2022-10-01T05:09:28.122Z,13.07
2022-10-01T05:11:55.824Z,12.47
2022-10-01T05:14:24.479Z,5.90
2022-10-01T05:16:52.281Z,7.83
2022-10-01T05:19:25.230Z,8.87
2022-10-01T05:21:55.405Z,7.28
2022-10-01T05:24:23.838Z,7.77
2022-10-01T05:26:53.966Z,7.60
2022-10-01T05:29:21.818Z,8.80
2022-10-01T05:31:50.291Z,7.73
2022-10-01T05:34:18.184Z,6.20
2022-10-01T05:36:47.329Z,7.47
2022-10-01T05:39:15.042Z,7.17
2022-10-01T05:41:42.891Z,7.03
2022-10-01T05:44:10.684Z,8.27
2022-10-01T05:46:38.621Z,7.77
2022-10-01T05:49:08.222Z,7.13
2022-10-01T05:51:36.711Z,6.83
2022-10-01T05:54:06.378Z,8.07
2022-10-01T05:56:34.999Z,7.53
2022-10-01T05:59:02.952Z,5.90
2022-10-01T06:01:32.363Z,8.90
2022-10-01T06:04:01.901Z,5.97
2022-10-01T06:06:29.900Z,7.03
2022-10-01T06:08:59.605Z,8.03
2022-10-01T06:11:28.741Z,7.93
2022-10-01T06:13:56.602Z,10.77
2022-10-01T06:16:24.618Z,11.17
2022-10-01T06:18:57.315Z,8.20
2022-10-01T06:21:25.343Z,10.93
2022-10-01T06:23:53.566Z,8.23
2022-10-01T06:26:21.796Z,8.17
2022-10-01T06:28:51.658Z,11.10
2022-10-01T06:31:21.111Z,9.10
2022-10-01T06:33:48.986Z,11.17
2022-10-01T06:36:16.846Z,7.27
2022-10-01T06:38:47.461Z,7.17
2022-10-01T06:41:15.247Z,10.23
2022-10-01T06:43:43.334Z,9.70
2022-10-01T06:46:12.736Z,9.97
2022-10-01T06:48:40.541Z,12.57
2022-10-01T06:51:08.650Z,11.07
2022-10-01T06:53:36.414Z,15.13
2022-10-01T06:56:07.007Z,15.03
2022-10-01T06:58:35.051Z,18.43
2022-10-01T07:01:03.795Z,10.37
2022-10-01T07:03:33.206Z,12.33
2022-10-01T07:06:03.640Z,17.87
2022-10-01T07:08:33.258Z,12.63
2022-10-01T07:11:02.428Z,12.33
2022-10-01T07:13:30.873Z,16.87
2022-10-01T07:15:58.712Z,11.93
2022-10-01T07:18:26.967Z,10.93
2022-10-01T07:20:58.114Z,8.40
2022-10-01T07:23:26.017Z,8.17
2022-10-01T07:25:54.233Z,10.50
2022-10-01T07:28:23.857Z,10.40
2022-10-01T07:31:00.332Z,12.13
2022-10-01T07:33:29.097Z,10.57
2022-10-01T07:36:01.318Z,7.17
2022-10-01T07:38:29.153Z,9.27
2022-10-01T07:40:58.806Z,11.23
2022-10-01T07:43:26.556Z,10.57
2022-10-01T07:45:57.963Z,10.03
2022-10-01T07:48:26.716Z,9.63
2022-10-01T07:50:54.819Z,11.43
2022-10-01T07:53:25.673Z,7.23
2022-10-01T07:55:53.739Z,9.40
2022-10-01T07:58:24.046Z,9.70
2022-10-01T08:00:56.026Z,12.05
2022-10-01T08:03:25.427Z,7.73
2022-10-01T08:05:54.173Z,7.17
2022-10-01T08:08:22.115Z,8.60
2022-10-01T08:10:51.238Z,7.27
2022-10-01T08:13:19.109Z,8.80
2022-10-01T08:15:53.642Z,10.40
2022-10-01T08:18:22.678Z,11.67
2022-10-01T08:20:50.640Z,8.27
2022-10-01T08:23:18.584Z,7.57
2022-10-01T08:25:47.849Z,8.87
2022-10-01T08:28:17.168Z,8.52
2022-10-01T08:30:45.014Z,9.23
2022-10-01T08:33:14.124Z,9.38
2022-10-01T08:35:46.282Z,12.40
2022-10-01T08:38:15.320Z,8.80
2022-10-01T08:40:48.168Z,8.80
2022-10-01T08:43:31.656Z,7.30
2022-10-01T08:46:04.749Z,9.30
2022-10-01T08:48:56.943Z,9.85
2022-10-01T08:51:35.111Z,9.02
2022-10-01T08:54:17.858Z,7.88
2022-10-01T08:56:47.847Z,9.55
2022-10-01T08:59:35.040Z,7.60
2022-10-01T09:02:10.520Z,9.60
2022-10-01T09:07:28.702Z,8.35
2022-10-01T09:10:11.414Z,7.10
2022-10-01T09:12:50.950Z,6.95
2022-10-01T09:15:31.413Z,5.97
2022-10-01T09:18:15.978Z,7.55
2022-10-01T09:20:51.672Z,5.28
2022-10-01T09:23:30.812Z,7.80
2022-10-01T09:26:00.408Z,5.22
2022-10-01T09:28:32.661Z,5.72
2022-10-01T09:31:16.422Z,5.90
2022-10-01T09:33:55.361Z,5.78
2022-10-01T09:36:36.054Z,6.07
2022-10-01T09:39:16.289Z,7.30
2022-10-01T09:41:46.181Z,10.50
2022-10-01T09:44:19.142Z,6.70
2022-10-01T09:46:48.476Z,6.30
2022-10-01T09:49:30.126Z,5.75
2022-10-01T09:52:06.156Z,6.78
2022-10-01T09:54:43.146Z,5.28
2022-10-01T09:57:15.632Z,6.72
2022-10-01T09:59:53.089Z,6.82
2022-10-01T10:02:30.228Z,4.75
2022-10-01T10:05:01.771Z,6.32
2022-10-01T10:07:32.783Z,15.43
2022-10-01T10:10:11.171Z,8.90
2022-10-01T10:12:43.291Z,8.02
2022-10-01T10:15:18.580Z,7.05
2022-10-01T10:20:32.967Z,7.43
2022-10-01T10:23:16.586Z,5.50
2022-10-01T10:25:55.000Z,7.45
2022-10-01T10:28:24.668Z,5.97
2022-10-01T10:30:55.865Z,6.78
2022-10-01T10:33:26.375Z,7.00
2022-10-01T10:36:02.087Z,8.07
2022-10-01T10:38:34.288Z,8.25
2022-10-01T10:41:03.802Z,7.38
2022-10-01T10:43:37.897Z,6.57
2022-10-01T10:46:08.314Z,7.60
2022-10-01T10:48:45.436Z,6.18
2022-10-01T10:51:14.454Z,5.95
2022-10-01T10:53:45.384Z,4.85
2022-10-01T10:56:25.294Z,6.72
2022-10-01T10:58:53.969Z,5.07
2022-10-01T11:01:28.827Z,5.97
2022-10-01T11:04:02.803Z,7.53
2022-10-01T11:06:30.664Z,8.38
2022-10-01T11:09:02.043Z,5.72
2022-10-01T11:11:52.259Z,3.78
2022-10-01T11:14:49.962Z,5.68
2022-10-01T11:17:44.728Z,4.53
2022-10-01T11:20:40.898Z,5.90
2022-10-01T11:26:24.384Z,6.28
2022-10-01T11:29:15.053Z,4.50
2022-10-01T11:31:54.920Z,4.18
2022-10-01T11:34:50.305Z,5.20
2022-10-01T11:37:41.606Z,3.78
2022-10-01T11:40:20.710Z,5.13
2022-10-01T11:42:52.333Z,5.45
2022-10-01T11:45:25.453Z,3.40
2022-10-01T11:48:00.266Z,5.20
2022-10-01T11:50:39.121Z,3.80
2022-10-01T11:53:18.913Z,4.65
2022-10-01T11:56:15.177Z,4.45
2022-10-01T11:58:54.568Z,5.65
2022-10-01T12:01:35.730Z,4.50
2022-10-01T12:04:22.669Z,4.72
2022-10-01T12:07:00.914Z,3.90
2022-10-01T12:09:53.353Z,4.20
2022-10-01T12:12:28.135Z,2.58
2022-10-01T12:15:09.357Z,3.83
2022-10-01T12:17:46.658Z,3.83
2022-10-01T12:20:24.940Z,2.60
2022-10-01T12:22:56.209Z,4.60
2022-10-01T12:25:37.793Z,3.40
2022-10-01T12:28:13.758Z,3.55
2022-10-01T12:30:53.804Z,3.67
2022-10-01T12:33:53.372Z,4.93
2022-10-01T12:36:38.777Z,6.35
2022-10-01T12:39:31.899Z,3.88
2022-10-01T12:42:25.414Z,3.60
2022-10-01T12:45:10.385Z,5.10
2022-10-01T12:47:51.498Z,4.80
2022-10-01T12:50:38.404Z,5.60
2022-10-01T12:53:23.183Z,4.80
2022-10-01T12:56:04.652Z,3.30
2022-10-01T12:59:06.271Z,4.20
2022-10-01T13:01:54.045Z,4.93
2022-10-01T13:04:43.113Z,4.22
2022-10-01T13:07:46.731Z,5.75
2022-10-01T13:10:35.208Z,5.38
2022-10-01T13:13:12.910Z,4.97
2022-10-01T13:15:49.283Z,7.75
2022-10-01T13:18:38.387Z,5.10
2022-10-01T13:21:17.698Z,4.28
2022-10-01T13:23:56.440Z,7.80
2022-10-01T13:26:36.902Z,6.20
2022-10-01T13:29:26.921Z,6.45
2022-10-01T13:32:02.234Z,7.03
2022-10-01T13:34:40.256Z,7.10
2022-10-01T13:37:15.076Z,4.90
2022-10-01T13:39:43.825Z,5.65
2022-10-01T13:42:24.116Z,4.72
2022-10-01T13:44:56.463Z,5.88
2022-10-01T13:47:26.770Z,5.07
2022-10-01T13:50:05.626Z,6.63
2022-10-01T13:52:34.876Z,6.82
2022-10-01T13:55:03.079Z,6.45
2022-10-01T13:57:34.959Z,4.70
2022-10-01T14:00:21.505Z,5.70
2022-10-01T14:03:06.536Z,5.93
2022-10-01T14:05:42.228Z,4.07
2022-10-01T14:08:19.070Z,5.20
2022-10-01T14:11:14.644Z,6.40
2022-10-01T14:14:07.129Z,6.47
2022-10-01T14:16:39.840Z,6.93
2022-10-01T14:19:17.377Z,5.15
2022-10-01T14:22:04.807Z,3.80
2022-10-01T14:24:50.696Z,7.32
2022-10-01T14:27:31.397Z,7.35
2022-10-01T14:30:10.688Z,5.55
2022-10-01T14:33:12.906Z,5.25
2022-10-01T14:35:57.288Z,8.15
2022-10-01T14:38:25.513Z,5.65
2022-10-01T14:40:53.967Z,5.13
2022-10-01T14:43:25.076Z,8.30
2022-10-01T14:45:57.475Z,7.53
2022-10-01T14:48:28.153Z,7.03
2022-10-01T14:51:01.105Z,5.65
2022-10-01T14:53:34.046Z,9.85
2022-10-01T14:56:07.929Z,8.20
2022-10-01T14:58:40.711Z,6.32
2022-10-01T15:01:19.055Z,6.88
2022-10-01T15:03:49.762Z,6.07
2022-10-01T15:06:21.984Z,6.00
2022-10-01T15:08:53.175Z,6.60
2022-10-01T15:11:24.643Z,5.32
2022-10-01T15:14:01.587Z,5.95
2022-10-01T15:16:31.118Z,6.28
2022-10-01T15:19:03.727Z,7.53
2022-10-01T15:21:38.459Z,8.35
2022-10-01T15:24:21.997Z,5.45
2022-10-01T15:26:52.206Z,3.85
2022-10-01T15:29:20.323Z,6.70
2022-10-01T15:31:53.049Z,6.53
2022-10-01T15:34:25.575Z,4.60
2022-10-01T15:36:55.934Z,5.78
2022-10-01T15:39:33.844Z,6.32
2022-10-01T15:42:08.787Z,9.55
2022-10-01T15:44:45.796Z,5.05
2022-10-01T15:47:34.828Z,6.53
2022-10-01T15:50:16.784Z,4.95
2022-10-01T15:53:09.971Z,3.38
2022-10-01T15:55:43.806Z,4.38
2022-10-01T15:58:19.953Z,9.15
2022-10-01T16:01:02.926Z,4.45
2022-10-01T16:03:34.637Z,7.18
2022-10-01T16:06:08.237Z,5.88
2022-10-01T16:08:58.400Z,6.78
2022-10-01T16:11:31.949Z,6.40
2022-10-01T16:14:28.018Z,7.05
2022-10-01T16:17:32.450Z,5.60
2022-10-01T16:20:17.659Z,8.20
2022-10-01T16:22:45.569Z,6.78
2022-10-01T16:25:32.610Z,6.85
2022-10-01T16:28:04.260Z,9.40
2022-10-01T16:30:33.977Z,11.40
2022-10-01T16:33:05.939Z,9.23
2022-10-01T16:35:40.311Z,7.75
2022-10-01T16:38:09.549Z,8.30
2022-10-01T16:40:42.203Z,8.13
2022-10-01T16:43:18.471Z,7.93
2022-10-01T16:45:46.542Z,9.75
2022-10-01T16:48:19.447Z,7.13
2022-10-01T16:50:47.649Z,11.63
2022-10-01T16:53:18.250Z,12.75
2022-10-01T16:55:47.945Z,7.65
2022-10-01T16:58:15.935Z,9.20
2022-10-01T17:00:44.264Z,8.90
2022-10-01T17:03:17.541Z,7.55
2022-10-01T17:05:46.542Z,7.70
2022-10-01T17:08:15.714Z,11.77
2022-10-01T17:10:51.134Z,12.07
2022-10-01T17:15:48.332Z,11.70
2022-10-01T17:18:16.446Z,11.60
2022-10-01T17:20:45.942Z,9.05
2022-10-01T17:23:16.670Z,9.82
2022-10-01T17:25:46.162Z,9.65
2022-10-01T17:28:20.408Z,7.35
2022-10-01T17:30:49.099Z,10.63
2022-10-01T17:33:19.536Z,7.10
2022-10-01T17:35:51.984Z,7.97
2022-10-01T17:38:20.995Z,7.07
2022-10-01T17:40:55.452Z,9.13
2022-10-01T17:43:25.611Z,7.30
2022-10-01T17:45:57.151Z,7.38
2022-10-01T17:48:25.701Z,9.07
2022-10-01T17:51:04.142Z,10.70
2022-10-01T17:53:39.644Z,6.22
2022-10-01T17:56:12.899Z,8.48
2022-10-01T17:58:45.711Z,7.45
2022-10-01T18:01:16.953Z,10.68
2022-10-01T18:03:45.306Z,9.43
2022-10-01T18:06:16.514Z,8.23
2022-10-01T18:08:55.180Z,8.63
2022-10-01T18:11:25.974Z,7.45
2022-10-01T18:13:55.280Z,7.47
2022-10-01T18:16:24.631Z,9.13
2022-10-01T18:21:45.781Z,11.60
2022-10-01T18:24:15.197Z,8.73
2022-10-01T18:26:45.463Z,12.60
2022-10-01T18:29:20.027Z,12.97
2022-10-01T18:31:52.498Z,9.05
2022-10-01T18:34:31.291Z,9.10
2022-10-01T18:37:05.763Z,8.03
2022-10-01T18:39:39.876Z,9.93
2022-10-01T18:42:18.225Z,8.37
2022-10-01T18:44:53.146Z,6.50
2022-10-01T18:47:38.803Z,10.35
2022-10-01T18:50:27.504Z,10.82
2022-10-01T18:53:18.737Z,10.43
2022-10-01T18:56:16.192Z,10.52
2022-10-01T18:59:17.757Z,8.68
2022-10-01T19:02:08.521Z,7.93
2022-10-01T19:05:18.107Z,7.65
2022-10-01T19:08:06.816Z,10.63
2022-10-01T19:10:41.502Z,11.00
2022-10-01T19:13:22.131Z,12.25
2022-10-01T19:16:11.928Z,10.90
2022-10-01T19:19:01.480Z,10.23
2022-10-01T19:21:40.886Z,8.73
2022-10-01T19:24:51.201Z,9.00
2022-10-01T19:27:39.008Z,11.87
2022-10-01T19:30:11.401Z,11.30
2022-10-01T19:32:47.468Z,13.20
2022-10-01T19:35:22.561Z,10.47
2022-10-01T19:37:56.719Z,7.32
2022-10-01T19:40:34.868Z,11.57
2022-10-01T19:43:13.692Z,10.40
2022-10-01T19:45:54.473Z,10.37
2022-10-01T19:48:33.044Z,9.93
2022-10-01T19:51:10.053Z,14.07
2022-10-01T19:53:43.361Z,9.47
2022-10-01T19:56:18.616Z,11.03
2022-10-01T19:58:46.423Z,9.80
2022-10-01T20:01:20.790Z,13.40
2022-10-01T20:03:59.411Z,10.90
2022-10-01T20:06:34.034Z,12.50
2022-10-01T20:09:15.280Z,8.65
2022-10-01T20:11:53.223Z,12.87
2022-10-01T20:14:58.430Z,11.15
2022-10-01T20:17:38.840Z,9.77
2022-10-01T20:20:17.199Z,12.82
2022-10-01T20:23:02.900Z,9.18
2022-10-01T20:25:43.123Z,11.15
2022-10-01T20:28:24.735Z,21.48
2022-10-01T20:31:05.748Z,23.13
2022-10-01T20:33:46.702Z,19.88
2022-10-01T20:36:26.057Z,15.43
2022-10-01T20:39:04.422Z,14.48
2022-10-01T20:41:44.842Z,11.25
2022-10-01T20:44:21.848Z,13.20
2022-10-01T20:46:55.952Z,11.70
2022-10-01T20:49:32.413Z,10.70
2022-10-01T20:52:10.963Z,8.57
2022-10-01T20:54:48.289Z,8.20
2022-10-01T20:57:31.202Z,8.90
2022-10-01T21:00:08.388Z,8.07
2022-10-01T21:02:42.564Z,9.25
2022-10-01T21:05:19.437Z,6.17
2022-10-01T21:07:57.757Z,5.93
2022-10-01T21:10:36.459Z,9.23
2022-10-01T21:13:15.834Z,6.67
2022-10-01T21:15:57.942Z,7.00
2022-10-01T21:18:41.386Z,9.53
2022-10-01T21:21:26.615Z,11.20
2022-10-01T21:24:11.978Z,9.25
2022-10-01T21:26:56.486Z,11.10
2022-10-01T21:29:55.620Z,10.87
2022-10-01T21:32:50.801Z,12.33
2022-10-01T21:35:32.265Z,14.50
2022-10-01T21:38:11.745Z,11.27
2022-10-01T21:41:24.912Z,13.87
2022-10-01T21:44:22.470Z,15.40
2022-10-01T21:47:00.747Z,10.13
2022-10-01T21:49:48.145Z,13.53
2022-10-01T21:52:35.675Z,16.50
2022-10-01T21:55:30.196Z,17.57
2022-10-01T21:58:19.972Z,16.23
2022-10-01T22:01:08.166Z,14.80
2022-10-01T22:03:47.972Z,17.87
2022-10-01T22:06:26.438Z,17.50
2022-10-01T22:09:06.875Z,17.60
2022-10-01T22:11:44.525Z,22.13
2022-10-01T22:14:16.988Z,18.80
2022-10-01T22:16:54.958Z,30.67
2022-10-01T22:19:29.556Z,21.97
2022-10-01T22:22:05.208Z,36.78
2022-10-01T22:27:16.124Z,23.40
2022-10-01T22:29:53.309Z,21.37
2022-10-01T22:32:26.905Z,21.67
2022-10-01T22:35:03.797Z,22.27
2022-10-01T22:37:40.551Z,22.20
2022-10-01T22:40:18.123Z,24.97
2022-10-01T22:42:58.411Z,25.03
2022-10-01T22:45:45.470Z,23.57
2022-10-01T22:48:39.085Z,29.43
2022-10-01T22:51:34.262Z,25.20
2022-10-01T22:54:32.913Z,31.70
2022-10-01T22:57:18.809Z,28.97
2022-10-01T23:00:01.293Z,29.27
2022-10-01T23:02:38.247Z,30.73
2022-10-01T23:05:22.778Z,29.20
2022-10-01T23:08:06.836Z,32.67
2022-10-01T23:10:51.095Z,29.23
2022-10-01T23:13:30.160Z,39.97
2022-10-01T23:16:10.360Z,38.03
2022-10-01T23:18:54.245Z,30.77
2022-10-01T23:21:41.334Z,36.10
2022-10-01T23:24:31.820Z,28.53
2022-10-01T23:27:22.386Z,25.83
2022-10-01T23:30:11.733Z,30.70
2022-10-01T23:33:12.847Z,31.83
2022-10-01T23:35:51.158Z,27.00
2022-10-01T23:38:45.822Z,30.23
2022-10-01T23:41:23.776Z,23.83
2022-10-01T23:44:03.435Z,21.50
2022-10-01T23:46:35.393Z,25.13
2022-10-01T23:49:11.669Z,25.63
2022-10-01T23:51:50.357Z,22.77
2022-10-01T23:54:30.084Z,29.83
2022-10-01T23:57:07.548Z,28.03
2022-10-01T23:59:42.228Z,30.43
